sensor_id;sensor_type;location;lat;lon;timestamp;P1;durP1;ratioP1;P2;durP2;ratioP2
85154;SDS011;75523;53.218;6.564;2024-01-10T00:01:19;58.40;;;53.40;;
85154;SDS011;75523;53.218;6.564;2024-01-10T00:03:46;58.60;;;53.80;;
85154;SDS011;75523;53.218;6.564;2024-01-10T00:06:11;58.97;;;54.10;;
85154;SDS011;75523;53.218;6.564;2024-01-10T00:08:37;60.00;;;55.27;;
85154;SDS011;75523;53.218;6.564;2024-01-10T00:11:02;58.87;;;54.03;;
85154;SDS011;75523;53.218;6.564;2024-01-10T00:13:29;57.40;;;52.60;;
85154;SDS011;75523;53.218;6.564;2024-01-10T00:15:56;60.57;;;55.57;;
85154;SDS011;75523;53.218;6.564;2024-01-10T00:18:24;59.77;;;54.87;;
85154;SDS011;75523;53.218;6.564;2024-01-10T00:20:50;60.73;;;55.63;;
85154;SDS011;75523;53.218;6.564;2024-01-10T00:23:18;61.10;;;56.15;;
85154;SDS011;75523;53.218;6.564;2024-01-10T00:25:44;61.63;;;56.57;;
85154;SDS011;75523;53.218;6.564;2024-01-10T00:28:10;62.27;;;57.07;;
85154;SDS011;75523;53.218;6.564;2024-01-10T00:30:36;61.23;;;56.13;;
85154;SDS011;75523;53.218;6.564;2024-01-10T00:33:02;62.37;;;56.93;;
85154;SDS011;75523;53.218;6.564;2024-01-10T00:35:28;61.30;;;56.13;;
85154;SDS011;75523;53.218;6.564;2024-01-10T00:37:53;62.00;;;56.77;;
85154;SDS011;75523;53.218;6.564;2024-01-10T00:40:20;61.07;;;55.97;;
85154;SDS011;75523;53.218;6.564;2024-01-10T00:42:45;63.87;;;58.37;;
85154;SDS011;75523;53.218;6.564;2024-01-10T00:45:11;62.17;;;56.87;;
85154;SDS011;75523;53.218;6.564;2024-01-10T00:47:36;62.90;;;57.63;;
85154;SDS011;75523;53.218;6.564;2024-01-10T00:50:02;61.70;;;56.40;;
85154;SDS011;75523;53.218;6.564;2024-01-10T00:52:28;61.03;;;55.93;;
85154;SDS011;75523;53.218;6.564;2024-01-10T00:54:53;63.77;;;58.17;;
85154;SDS011;75523;53.218;6.564;2024-01-10T00:57:19;59.80;;;54.43;;
85154;SDS011;75523;53.218;6.564;2024-01-10T00:59:45;60.47;;;55.57;;
85154;SDS011;75523;53.218;6.564;2024-01-10T01:02:11;59.30;;;54.30;;
85154;SDS011;75523;53.218;6.564;2024-01-10T01:04:36;59.60;;;54.70;;
85154;SDS011;75523;53.218;6.564;2024-01-10T01:07:02;59.67;;;54.73;;
85154;SDS011;75523;53.218;6.564;2024-01-10T01:09:28;57.63;;;53.03;;
85154;SDS011;75523;53.218;6.564;2024-01-10T01:11:53;60.30;;;55.43;;
85154;SDS011;75523;53.218;6.564;2024-01-10T01:14:19;59.17;;;54.47;;
85154;SDS011;75523;53.218;6.564;2024-01-10T01:16:44;57.53;;;52.90;;
85154;SDS011;75523;53.218;6.564;2024-01-10T01:19:10;58.60;;;54.00;;
85154;SDS011;75523;53.218;6.564;2024-01-10T01:21:35;54.63;;;50.23;;
85154;SDS011;75523;53.218;6.564;2024-01-10T01:24:01;56.30;;;51.83;;
85154;SDS011;75523;53.218;6.564;2024-01-10T01:26:26;57.80;;;53.20;;
85154;SDS011;75523;53.218;6.564;2024-01-10T01:28:51;54.77;;;50.47;;
85154;SDS011;75523;53.218;6.564;2024-01-10T01:31:17;56.53;;;51.90;;
85154;SDS011;75523;53.218;6.564;2024-01-10T01:33:43;58.23;;;53.60;;
85154;SDS011;75523;53.218;6.564;2024-01-10T01:36:08;58.83;;;54.13;;
85154;SDS011;75523;53.218;6.564;2024-01-10T01:38:35;61.13;;;56.17;;
85154;SDS011;75523;53.218;6.564;2024-01-10T01:41:00;61.57;;;56.27;;
85154;SDS011;75523;53.218;6.564;2024-01-10T01:43:28;60.97;;;55.87;;
85154;SDS011;75523;53.218;6.564;2024-01-10T01:45:54;61.43;;;56.07;;
85154;SDS011;75523;53.218;6.564;2024-01-10T01:48:20;63.63;;;58.37;;
85154;SDS011;75523;53.218;6.564;2024-01-10T01:50:46;63.83;;;58.33;;
85154;SDS011;75523;53.218;6.564;2024-01-10T01:53:13;64.97;;;59.20;;
85154;SDS011;75523;53.218;6.564;2024-01-10T01:55:40;65.40;;;59.70;;
85154;SDS011;75523;53.218;6.564;2024-01-10T01:58:06;66.80;;;61.03;;
85154;SDS011;75523;53.218;6.564;2024-01-10T02:00:33;68.70;;;62.63;;
85154;SDS011;75523;53.218;6.564;2024-01-10T02:02:59;68.70;;;62.70;;
85154;SDS011;75523;53.218;6.564;2024-01-10T02:05:25;69.27;;;63.07;;
85154;SDS011;75523;53.218;6.564;2024-01-10T02:07:51;69.40;;;63.17;;
85154;SDS011;75523;53.218;6.564;2024-01-10T02:10:17;70.63;;;64.50;;
85154;SDS011;75523;53.218;6.564;2024-01-10T02:12:44;66.10;;;60.20;;
85154;SDS011;75523;53.218;6.564;2024-01-10T02:15:10;67.43;;;61.27;;
85154;SDS011;75523;53.218;6.564;2024-01-10T02:17:35;68.03;;;62.00;;
85154;SDS011;75523;53.218;6.564;2024-01-10T02:20:11;67.80;;;61.90;;
85154;SDS011;75523;53.218;6.564;2024-01-10T02:22:44;68.10;;;62.00;;
85154;SDS011;75523;53.218;6.564;2024-01-10T02:25:10;66.20;;;60.33;;
85154;SDS011;75523;53.218;6.564;2024-01-10T02:27:36;68.93;;;62.93;;
85154;SDS011;75523;53.218;6.564;2024-01-10T02:30:05;67.47;;;61.67;;
85154;SDS011;75523;53.218;6.564;2024-01-10T02:32:31;68.13;;;62.20;;
85154;SDS011;75523;53.218;6.564;2024-01-10T02:34:57;70.77;;;64.67;;
85154;SDS011;75523;53.218;6.564;2024-01-10T02:37:23;68.30;;;62.20;;
85154;SDS011;75523;53.218;6.564;2024-01-10T02:39:49;66.97;;;61.17;;
85154;SDS011;75523;53.218;6.564;2024-01-10T02:42:14;67.60;;;61.70;;
85154;SDS011;75523;53.218;6.564;2024-01-10T02:44:40;67.63;;;61.73;;
85154;SDS011;75523;53.218;6.564;2024-01-10T02:47:06;67.17;;;61.23;;
85154;SDS011;75523;53.218;6.564;2024-01-10T02:49:32;68.57;;;62.57;;
85154;SDS011;75523;53.218;6.564;2024-01-10T02:51:58;68.40;;;62.20;;
85154;SDS011;75523;53.218;6.564;2024-01-10T02:54:23;69.07;;;63.13;;
85154;SDS011;75523;53.218;6.564;2024-01-10T02:56:49;66.00;;;60.23;;
85154;SDS011;75523;53.218;6.564;2024-01-10T02:59:15;67.67;;;61.87;;
85154;SDS011;75523;53.218;6.564;2024-01-10T03:01:40;69.03;;;63.10;;
85154;SDS011;75523;53.218;6.564;2024-01-10T03:04:06;65.53;;;59.93;;
85154;SDS011;75523;53.218;6.564;2024-01-10T03:06:31;64.50;;;58.83;;
85154;SDS011;75523;53.218;6.564;2024-01-10T03:08:56;65.27;;;59.57;;
85154;SDS011;75523;53.218;6.564;2024-01-10T03:11:22;65.47;;;59.97;;
85154;SDS011;75523;53.218;6.564;2024-01-10T03:13:49;65.20;;;59.63;;
85154;SDS011;75523;53.218;6.564;2024-01-10T03:16:19;65.03;;;59.53;;
85154;SDS011;75523;53.218;6.564;2024-01-10T03:18:45;65.07;;;59.47;;
85154;SDS011;75523;53.218;6.564;2024-01-10T03:21:11;63.07;;;57.73;;
85154;SDS011;75523;53.218;6.564;2024-01-10T03:23:36;63.17;;;57.80;;
85154;SDS011;75523;53.218;6.564;2024-01-10T03:26:02;62.70;;;57.60;;
85154;SDS011;75523;53.218;6.564;2024-01-10T03:28:27;59.53;;;54.53;;
85154;SDS011;75523;53.218;6.564;2024-01-10T03:30:53;60.03;;;55.03;;
85154;SDS011;75523;53.218;6.564;2024-01-10T03:33:19;62.10;;;56.90;;
85154;SDS011;75523;53.218;6.564;2024-01-10T03:35:44;61.53;;;56.33;;
85154;SDS011;75523;53.218;6.564;2024-01-10T03:38:10;62.87;;;57.43;;
85154;SDS011;75523;53.218;6.564;2024-01-10T03:40:36;63.27;;;57.93;;
85154;SDS011;75523;53.218;6.564;2024-01-10T03:43:02;60.87;;;55.73;;
85154;SDS011;75523;53.218;6.564;2024-01-10T03:45:28;62.60;;;57.20;;
85154;SDS011;75523;53.218;6.564;2024-01-10T03:47:54;64.80;;;59.43;;
85154;SDS011;75523;53.218;6.564;2024-01-10T03:50:20;63.93;;;58.43;;
85154;SDS011;75523;53.218;6.564;2024-01-10T03:52:46;64.97;;;59.33;;
85154;SDS011;75523;53.218;6.564;2024-01-10T03:55:12;65.57;;;59.90;;
85154;SDS011;75523;53.218;6.564;2024-01-10T03:57:40;64.38;;;58.80;;
85154;SDS011;75523;53.218;6.564;2024-01-10T04:00:07;69.57;;;63.37;;
85154;SDS011;75523;53.218;6.564;2024-01-10T04:02:37;69.07;;;63.17;;
85154;SDS011;75523;53.218;6.564;2024-01-10T04:05:09;66.33;;;60.50;;
85154;SDS011;75523;53.218;6.564;2024-01-10T04:07:35;68.70;;;62.80;;
85154;SDS011;75523;53.218;6.564;2024-01-10T04:10:01;66.67;;;60.83;;
85154;SDS011;75523;53.218;6.564;2024-01-10T04:12:27;65.97;;;60.33;;
85154;SDS011;75523;53.218;6.564;2024-01-10T04:14:53;65.07;;;59.37;;
85154;SDS011;75523;53.218;6.564;2024-01-10T04:17:19;66.17;;;60.57;;
85154;SDS011;75523;53.218;6.564;2024-01-10T04:19:44;66.23;;;60.53;;
85154;SDS011;75523;53.218;6.564;2024-01-10T04:22:10;66.27;;;60.37;;
85154;SDS011;75523;53.218;6.564;2024-01-10T04:24:35;65.03;;;59.33;;
85154;SDS011;75523;53.218;6.564;2024-01-10T04:27:01;67.13;;;61.43;;
85154;SDS011;75523;53.218;6.564;2024-01-10T04:29:26;66.17;;;60.47;;
85154;SDS011;75523;53.218;6.564;2024-01-10T04:31:52;64.37;;;58.90;;
85154;SDS011;75523;53.218;6.564;2024-01-10T04:34:17;64.17;;;58.87;;
85154;SDS011;75523;53.218;6.564;2024-01-10T04:36:43;62.97;;;57.67;;
85154;SDS011;75523;53.218;6.564;2024-01-10T04:39:08;64.67;;;59.23;;
85154;SDS011;75523;53.218;6.564;2024-01-10T04:41:34;65.03;;;59.43;;
85154;SDS011;75523;53.218;6.564;2024-01-10T04:44:00;67.30;;;61.73;;
85154;SDS011;75523;53.218;6.564;2024-01-10T04:46:25;66.53;;;60.93;;
85154;SDS011;75523;53.218;6.564;2024-01-10T04:48:51;65.87;;;60.27;;
85154;SDS011;75523;53.218;6.564;2024-01-10T04:51:16;64.80;;;59.43;;
85154;SDS011;75523;53.218;6.564;2024-01-10T04:53:43;62.47;;;57.27;;
85154;SDS011;75523;53.218;6.564;2024-01-10T04:56:08;60.27;;;55.27;;
85154;SDS011;75523;53.218;6.564;2024-01-10T04:58:34;61.77;;;56.63;;
85154;SDS011;75523;53.218;6.564;2024-01-10T05:01:01;61.30;;;56.43;;
85154;SDS011;75523;53.218;6.564;2024-01-10T05:03:27;61.17;;;56.13;;
85154;SDS011;75523;53.218;6.564;2024-01-10T05:05:52;60.27;;;55.40;;
85154;SDS011;75523;53.218;6.564;2024-01-10T05:08:18;60.43;;;55.47;;
85154;SDS011;75523;53.218;6.564;2024-01-10T05:10:45;58.90;;;54.20;;
85154;SDS011;75523;53.218;6.564;2024-01-10T05:13:11;57.50;;;52.80;;
85154;SDS011;75523;53.218;6.564;2024-01-10T05:15:37;60.17;;;55.33;;
85154;SDS011;75523;53.218;6.564;2024-01-10T05:18:03;58.77;;;54.10;;
85154;SDS011;75523;53.218;6.564;2024-01-10T05:20:29;57.10;;;52.40;;
85154;SDS011;75523;53.218;6.564;2024-01-10T05:22:55;59.07;;;54.37;;
85154;SDS011;75523;53.218;6.564;2024-01-10T05:25:24;58.05;;;53.45;;
85154;SDS011;75523;53.218;6.564;2024-01-10T05:27:50;58.07;;;53.57;;
85154;SDS011;75523;53.218;6.564;2024-01-10T05:30:15;57.10;;;52.70;;
85154;SDS011;75523;53.218;6.564;2024-01-10T05:32:41;58.03;;;53.43;;
85154;SDS011;75523;53.218;6.564;2024-01-10T05:35:07;57.40;;;52.80;;
85154;SDS011;75523;53.218;6.564;2024-01-10T05:37:32;58.47;;;53.97;;
85154;SDS011;75523;53.218;6.564;2024-01-10T05:39:58;58.80;;;54.30;;
85154;SDS011;75523;53.218;6.564;2024-01-10T05:42:24;59.20;;;54.53;;
85154;SDS011;75523;53.218;6.564;2024-01-10T05:44:50;58.67;;;53.87;;
85154;SDS011;75523;53.218;6.564;2024-01-10T05:47:15;57.77;;;53.17;;
85154;SDS011;75523;53.218;6.564;2024-01-10T05:49:41;60.87;;;55.97;;
85154;SDS011;75523;53.218;6.564;2024-01-10T05:52:07;59.33;;;54.63;;
85154;SDS011;75523;53.218;6.564;2024-01-10T05:54:33;59.37;;;54.67;;
85154;SDS011;75523;53.218;6.564;2024-01-10T05:56:59;60.53;;;55.83;;
85154;SDS011;75523;53.218;6.564;2024-01-10T05:59:26;61.50;;;56.60;;
85154;SDS011;75523;53.218;6.564;2024-01-10T06:01:51;61.87;;;56.97;;
85154;SDS011;75523;53.218;6.564;2024-01-10T06:04:17;60.33;;;55.40;;
85154;SDS011;75523;53.218;6.564;2024-01-10T06:06:42;61.23;;;56.37;;
85154;SDS011;75523;53.218;6.564;2024-01-10T06:09:09;60.37;;;55.47;;
85154;SDS011;75523;53.218;6.564;2024-01-10T06:11:40;60.63;;;55.73;;
85154;SDS011;75523;53.218;6.564;2024-01-10T06:14:06;60.37;;;55.47;;
85154;SDS011;75523;53.218;6.564;2024-01-10T06:16:32;61.43;;;56.43;;
85154;SDS011;75523;53.218;6.564;2024-01-10T06:18:57;62.80;;;57.50;;
85154;SDS011;75523;53.218;6.564;2024-01-10T06:21:23;63.87;;;58.27;;
85154;SDS011;75523;53.218;6.564;2024-01-10T06:23:49;63.33;;;58.03;;
85154;SDS011;75523;53.218;6.564;2024-01-10T06:26:14;64.80;;;59.13;;
85154;SDS011;75523;53.218;6.564;2024-01-10T06:28:40;62.10;;;56.90;;
85154;SDS011;75523;53.218;6.564;2024-01-10T06:31:06;64.97;;;59.57;;
85154;SDS011;75523;53.218;6.564;2024-01-10T06:33:31;63.87;;;58.53;;
85154;SDS011;75523;53.218;6.564;2024-01-10T06:35:57;63.03;;;57.73;;
85154;SDS011;75523;53.218;6.564;2024-01-10T06:38:23;63.10;;;57.87;;
85154;SDS011;75523;53.218;6.564;2024-01-10T06:40:49;62.63;;;57.50;;
85154;SDS011;75523;53.218;6.564;2024-01-10T06:43:15;60.50;;;55.43;;
85154;SDS011;75523;53.218;6.564;2024-01-10T06:45:41;59.13;;;54.13;;
85154;SDS011;75523;53.218;6.564;2024-01-10T06:48:07;60.27;;;55.37;;
85154;SDS011;75523;53.218;6.564;2024-01-10T06:50:33;59.87;;;55.17;;
85154;SDS011;75523;53.218;6.564;2024-01-10T06:52:59;60.03;;;55.20;;
85154;SDS011;75523;53.218;6.564;2024-01-10T06:55:24;61.63;;;56.63;;
85154;SDS011;75523;53.218;6.564;2024-01-10T06:57:51;62.33;;;57.20;;
85154;SDS011;75523;53.218;6.564;2024-01-10T07:00:21;61.90;;;56.63;;
85154;SDS011;75523;53.218;6.564;2024-01-10T07:02:47;62.27;;;57.37;;
85154;SDS011;75523;53.218;6.564;2024-01-10T07:05:14;61.77;;;56.67;;
85154;SDS011;75523;53.218;6.564;2024-01-10T07:07:40;61.33;;;56.30;;
85154;SDS011;75523;53.218;6.564;2024-01-10T07:10:06;60.53;;;55.43;;
85154;SDS011;75523;53.218;6.564;2024-01-10T07:12:32;62.63;;;57.43;;
85154;SDS011;75523;53.218;6.564;2024-01-10T07:14:58;61.37;;;56.37;;
85154;SDS011;75523;53.218;6.564;2024-01-10T07:17:24;59.97;;;54.97;;
85154;SDS011;75523;53.218;6.564;2024-01-10T07:19:50;61.23;;;56.23;;
85154;SDS011;75523;53.218;6.564;2024-01-10T07:22:15;60.87;;;55.87;;
85154;SDS011;75523;53.218;6.564;2024-01-10T07:24:40;59.70;;;54.70;;
85154;SDS011;75523;53.218;6.564;2024-01-10T07:27:06;62.33;;;57.13;;
85154;SDS011;75523;53.218;6.564;2024-01-10T07:29:34;60.90;;;55.97;;
85154;SDS011;75523;53.218;6.564;2024-01-10T07:31:59;59.67;;;54.80;;
85154;SDS011;75523;53.218;6.564;2024-01-10T07:34:25;59.27;;;54.37;;
85154;SDS011;75523;53.218;6.564;2024-01-10T07:36:50;60.33;;;55.23;;
85154;SDS011;75523;53.218;6.564;2024-01-10T07:39:16;59.73;;;54.77;;
85154;SDS011;75523;53.218;6.564;2024-01-10T07:41:46;60.67;;;55.77;;
85154;SDS011;75523;53.218;6.564;2024-01-10T07:44:12;59.93;;;55.03;;
85154;SDS011;75523;53.218;6.564;2024-01-10T07:46:38;56.57;;;51.97;;
85154;SDS011;75523;53.218;6.564;2024-01-10T07:49:04;57.03;;;52.43;;
85154;SDS011;75523;53.218;6.564;2024-01-10T07:51:30;57.97;;;53.27;;
85154;SDS011;75523;53.218;6.564;2024-01-10T07:53:55;57.47;;;52.77;;
85154;SDS011;75523;53.218;6.564;2024-01-10T07:56:21;54.60;;;50.00;;
85154;SDS011;75523;53.218;6.564;2024-01-10T07:58:47;55.30;;;50.67;;
85154;SDS011;75523;53.218;6.564;2024-01-10T08:01:14;57.10;;;52.50;;
85154;SDS011;75523;53.218;6.564;2024-01-10T08:03:40;54.23;;;49.73;;
85154;SDS011;75523;53.218;6.564;2024-01-10T08:06:06;55.07;;;50.47;;
85154;SDS011;75523;53.218;6.564;2024-01-10T08:08:31;56.37;;;51.73;;
85154;SDS011;75523;53.218;6.564;2024-01-10T08:10:57;57.57;;;52.67;;
85154;SDS011;75523;53.218;6.564;2024-01-10T08:13:22;59.80;;;54.83;;
85154;SDS011;75523;53.218;6.564;2024-01-10T08:15:48;60.47;;;55.17;;
85154;SDS011;75523;53.218;6.564;2024-01-10T08:18:13;62.80;;;57.40;;
85154;SDS011;75523;53.218;6.564;2024-01-10T08:20:39;63.67;;;58.33;;
85154;SDS011;75523;53.218;6.564;2024-01-10T08:23:05;66.27;;;60.47;;
85154;SDS011;75523;53.218;6.564;2024-01-10T08:25:30;66.00;;;60.00;;
85154;SDS011;75523;53.218;6.564;2024-01-10T08:27:56;66.10;;;60.17;;
85154;SDS011;75523;53.218;6.564;2024-01-10T08:30:23;65.37;;;59.23;;
85154;SDS011;75523;53.218;6.564;2024-01-10T08:32:49;66.03;;;59.90;;
85154;SDS011;75523;53.218;6.564;2024-01-10T08:35:15;67.17;;;61.10;;
85154;SDS011;75523;53.218;6.564;2024-01-10T08:37:41;67.27;;;60.97;;
85154;SDS011;75523;53.218;6.564;2024-01-10T08:40:11;66.80;;;60.47;;
85154;SDS011;75523;53.218;6.564;2024-01-10T08:42:40;65.65;;;59.45;;
85154;SDS011;75523;53.218;6.564;2024-01-10T08:45:05;67.63;;;61.20;;
85154;SDS011;75523;53.218;6.564;2024-01-10T08:47:31;66.63;;;60.37;;
85154;SDS011;75523;53.218;6.564;2024-01-10T08:49:58;65.00;;;58.87;;
85154;SDS011;75523;53.218;6.564;2024-01-10T08:52:23;63.23;;;57.23;;
85154;SDS011;75523;53.218;6.564;2024-01-10T08:54:49;62.27;;;56.53;;
85154;SDS011;75523;53.218;6.564;2024-01-10T08:57:15;61.57;;;55.70;;
85154;SDS011;75523;53.218;6.564;2024-01-10T08:59:43;62.63;;;56.60;;
85154;SDS011;75523;53.218;6.564;2024-01-10T09:04:34;62.03;;;55.97;;
85154;SDS011;75523;53.218;6.564;2024-01-10T09:07:00;59.77;;;53.97;;
85154;SDS011;75523;53.218;6.564;2024-01-10T09:09:25;58.87;;;53.20;;
85154;SDS011;75523;53.218;6.564;2024-01-10T09:11:51;60.23;;;54.33;;
85154;SDS011;75523;53.218;6.564;2024-01-10T09:14:16;60.30;;;54.57;;
85154;SDS011;75523;53.218;6.564;2024-01-10T09:16:42;59.20;;;53.23;;
85154;SDS011;75523;53.218;6.564;2024-01-10T09:19:08;59.07;;;53.33;;
85154;SDS011;75523;53.218;6.564;2024-01-10T09:21:34;59.87;;;54.10;;
85154;SDS011;75523;53.218;6.564;2024-01-10T09:24:00;59.97;;;54.47;;
85154;SDS011;75523;53.218;6.564;2024-01-10T09:26:29;57.23;;;51.63;;
85154;SDS011;75523;53.218;6.564;2024-01-10T09:28:55;53.67;;;48.53;;
85154;SDS011;75523;53.218;6.564;2024-01-10T09:31:21;55.30;;;50.10;;
85154;SDS011;75523;53.218;6.564;2024-01-10T09:33:46;56.17;;;50.77;;
85154;SDS011;75523;53.218;6.564;2024-01-10T09:36:11;55.13;;;49.83;;
85154;SDS011;75523;53.218;6.564;2024-01-10T09:38:39;54.23;;;49.23;;
85154;SDS011;75523;53.218;6.564;2024-01-10T09:41:04;55.50;;;50.43;;
85154;SDS011;75523;53.218;6.564;2024-01-10T09:43:31;54.77;;;49.77;;
85154;SDS011;75523;53.218;6.564;2024-01-10T09:45:59;52.92;;;48.03;;
85154;SDS011;75523;53.218;6.564;2024-01-10T09:48:26;52.07;;;47.20;;
85154;SDS011;75523;53.218;6.564;2024-01-10T09:50:53;55.17;;;50.17;;
85154;SDS011;75523;53.218;6.564;2024-01-10T09:53:22;53.93;;;49.17;;
85154;SDS011;75523;53.218;6.564;2024-01-10T09:55:52;51.70;;;47.20;;
85154;SDS011;75523;53.218;6.564;2024-01-10T09:58:21;53.33;;;48.63;;
85154;SDS011;75523;53.218;6.564;2024-01-10T10:00:49;52.63;;;47.93;;
85154;SDS011;75523;53.218;6.564;2024-01-10T10:03:14;50.83;;;46.43;;
85154;SDS011;75523;53.218;6.564;2024-01-10T10:05:43;50.80;;;46.25;;
85154;SDS011;75523;53.218;6.564;2024-01-10T10:08:10;52.07;;;47.57;;
85154;SDS011;75523;53.218;6.564;2024-01-10T10:13:10;51.13;;;46.73;;
85154;SDS011;75523;53.218;6.564;2024-01-10T10:15:36;48.70;;;44.57;;
85154;SDS011;75523;53.218;6.564;2024-01-10T10:18:02;50.60;;;46.20;;
85154;SDS011;75523;53.218;6.564;2024-01-10T10:20:28;47.73;;;43.63;;
85154;SDS011;75523;53.218;6.564;2024-01-10T10:23:05;48.33;;;44.20;;
85154;SDS011;75523;53.218;6.564;2024-01-10T10:25:32;47.90;;;43.97;;
85154;SDS011;75523;53.218;6.564;2024-01-10T10:28:01;47.27;;;43.47;;
85154;SDS011;75523;53.218;6.564;2024-01-10T10:30:28;46.10;;;42.30;;
85154;SDS011;75523;53.218;6.564;2024-01-10T10:32:54;44.90;;;41.23;;
85154;SDS011;75523;53.218;6.564;2024-01-10T10:35:20;46.53;;;42.83;;
85154;SDS011;75523;53.218;6.564;2024-01-10T10:37:50;44.80;;;41.20;;
85154;SDS011;75523;53.218;6.564;2024-01-10T10:40:17;45.00;;;41.53;;
85154;SDS011;75523;53.218;6.564;2024-01-10T10:42:46;46.90;;;43.20;;
85154;SDS011;75523;53.218;6.564;2024-01-10T10:45:16;48.03;;;44.03;;
85154;SDS011;75523;53.218;6.564;2024-01-10T10:47:44;46.30;;;42.67;;
85154;SDS011;75523;53.218;6.564;2024-01-10T10:50:15;46.70;;;42.97;;
85154;SDS011;75523;53.218;6.564;2024-01-10T10:52:45;45.57;;;41.97;;
85154;SDS011;75523;53.218;6.564;2024-01-10T10:55:17;45.45;;;41.65;;
85154;SDS011;75523;53.218;6.564;2024-01-10T10:57:47;46.27;;;42.67;;
85154;SDS011;75523;53.218;6.564;2024-01-10T11:00:13;46.40;;;42.70;;
85154;SDS011;75523;53.218;6.564;2024-01-10T11:02:43;45.63;;;42.03;;
85154;SDS011;75523;53.218;6.564;2024-01-10T11:05:09;45.80;;;42.10;;
85154;SDS011;75523;53.218;6.564;2024-01-10T11:07:39;46.70;;;43.00;;
85154;SDS011;75523;53.218;6.564;2024-01-10T11:10:40;45.50;;;42.00;;
85154;SDS011;75523;53.218;6.564;2024-01-10T11:15:36;43.47;;;40.10;;
85154;SDS011;75523;53.218;6.564;2024-01-10T11:26:10;44.13;;;40.63;;
85154;SDS011;75523;53.218;6.564;2024-01-10T11:28:36;43.83;;;40.33;;
85154;SDS011;75523;53.218;6.564;2024-01-10T11:31:05;44.30;;;40.70;;
85154;SDS011;75523;53.218;6.564;2024-01-10T11:33:33;45.23;;;41.73;;
85154;SDS011;75523;53.218;6.564;2024-01-10T11:36:17;45.10;;;41.60;;
85154;SDS011;75523;53.218;6.564;2024-01-10T11:41:24;45.13;;;41.67;;
85154;SDS011;75523;53.218;6.564;2024-01-10T11:46:47;43.70;;;40.13;;
85154;SDS011;75523;53.218;6.564;2024-01-10T11:49:14;46.07;;;42.27;;
85154;SDS011;75523;53.218;6.564;2024-01-10T11:51:44;44.53;;;41.00;;
85154;SDS011;75523;53.218;6.564;2024-01-10T11:54:11;45.13;;;41.63;;
85154;SDS011;75523;53.218;6.564;2024-01-10T11:59:10;45.20;;;41.63;;
85154;SDS011;75523;53.218;6.564;2024-01-10T12:01:36;45.30;;;41.80;;
85154;SDS011;75523;53.218;6.564;2024-01-10T12:04:03;44.93;;;41.53;;
85154;SDS011;75523;53.218;6.564;2024-01-10T12:08:57;44.27;;;40.77;;
85154;SDS011;75523;53.218;6.564;2024-01-10T12:11:23;44.27;;;40.87;;
85154;SDS011;75523;53.218;6.564;2024-01-10T12:13:52;45.90;;;42.40;;
85154;SDS011;75523;53.218;6.564;2024-01-10T12:16:18;44.23;;;40.63;;
85154;SDS011;75523;53.218;6.564;2024-01-10T12:18:43;44.23;;;40.80;;
85154;SDS011;75523;53.218;6.564;2024-01-10T12:21:09;44.50;;;41.00;;
85154;SDS011;75523;53.218;6.564;2024-01-10T12:23:38;45.60;;;42.00;;
85154;SDS011;75523;53.218;6.564;2024-01-10T12:26:05;44.43;;;40.63;;
85154;SDS011;75523;53.218;6.564;2024-01-10T12:28:34;44.67;;;41.03;;
85154;SDS011;75523;53.218;6.564;2024-01-10T12:31:01;44.63;;;41.03;;
85154;SDS011;75523;53.218;6.564;2024-01-10T12:33:28;45.07;;;41.43;;
85154;SDS011;75523;53.218;6.564;2024-01-10T12:36:07;45.17;;;41.57;;
85154;SDS011;75523;53.218;6.564;2024-01-10T12:38:40;44.60;;;41.10;;
85154;SDS011;75523;53.218;6.564;2024-01-10T12:41:05;43.33;;;39.88;;
85154;SDS011;75523;53.218;6.564;2024-01-10T12:43:33;44.67;;;41.08;;
85154;SDS011;75523;53.218;6.564;2024-01-10T12:48:31;45.67;;;42.07;;
85154;SDS011;75523;53.218;6.564;2024-01-10T12:50:59;44.90;;;41.20;;
85154;SDS011;75523;53.218;6.564;2024-01-10T12:53:34;44.47;;;40.77;;
85154;SDS011;75523;53.218;6.564;2024-01-10T12:56:06;46.07;;;42.17;;
85154;SDS011;75523;53.218;6.564;2024-01-10T12:58:32;46.73;;;42.90;;
85154;SDS011;75523;53.218;6.564;2024-01-10T13:01:00;45.28;;;41.67;;
85154;SDS011;75523;53.218;6.564;2024-01-10T13:03:25;45.47;;;41.87;;
85154;SDS011;75523;53.218;6.564;2024-01-10T13:05:51;43.80;;;40.23;;
85154;SDS011;75523;53.218;6.564;2024-01-10T13:08:18;44.40;;;40.47;;
85154;SDS011;75523;53.218;6.564;2024-01-10T13:10:44;46.20;;;42.40;;
85154;SDS011;75523;53.218;6.564;2024-01-10T13:13:11;46.03;;;42.43;;
85154;SDS011;75523;53.218;6.564;2024-01-10T13:15:37;46.00;;;42.30;;
85154;SDS011;75523;53.218;6.564;2024-01-10T13:18:03;45.20;;;41.47;;
85154;SDS011;75523;53.218;6.564;2024-01-10T13:20:30;45.73;;;41.97;;
85154;SDS011;75523;53.218;6.564;2024-01-10T13:22:57;44.10;;;40.50;;
85154;SDS011;75523;53.218;6.564;2024-01-10T13:25:23;44.57;;;40.97;;
85154;SDS011;75523;53.218;6.564;2024-01-10T13:27:52;45.67;;;41.97;;
85154;SDS011;75523;53.218;6.564;2024-01-10T13:30:18;45.50;;;41.83;;
85154;SDS011;75523;53.218;6.564;2024-01-10T13:32:45;44.57;;;41.07;;
85154;SDS011;75523;53.218;6.564;2024-01-10T13:35:13;45.47;;;41.77;;
85154;SDS011;75523;53.218;6.564;2024-01-10T13:37:39;44.40;;;40.83;;
85154;SDS011;75523;53.218;6.564;2024-01-10T13:40:08;44.97;;;41.47;;
85154;SDS011;75523;53.218;6.564;2024-01-10T13:42:36;43.80;;;40.30;;
85154;SDS011;75523;53.218;6.564;2024-01-10T13:45:04;44.05;;;40.58;;
85154;SDS011;75523;53.218;6.564;2024-01-10T13:47:30;44.83;;;41.23;;
85154;SDS011;75523;53.218;6.564;2024-01-10T13:49:58;44.67;;;41.15;;
85154;SDS011;75523;53.218;6.564;2024-01-10T13:52:24;45.07;;;41.37;;
85154;SDS011;75523;53.218;6.564;2024-01-10T13:54:50;45.07;;;41.47;;
85154;SDS011;75523;53.218;6.564;2024-01-10T13:57:16;45.90;;;41.77;;
85154;SDS011;75523;53.218;6.564;2024-01-10T13:59:42;46.60;;;42.70;;
85154;SDS011;75523;53.218;6.564;2024-01-10T14:02:07;45.43;;;41.73;;
85154;SDS011;75523;53.218;6.564;2024-01-10T14:04:33;46.27;;;42.43;;
85154;SDS011;75523;53.218;6.564;2024-01-10T14:06:59;46.50;;;42.60;;
85154;SDS011;75523;53.218;6.564;2024-01-10T14:09:24;46.40;;;42.43;;
85154;SDS011;75523;53.218;6.564;2024-01-10T14:11:50;46.37;;;42.37;;
85154;SDS011;75523;53.218;6.564;2024-01-10T14:14:17;47.97;;;43.87;;
85154;SDS011;75523;53.218;6.564;2024-01-10T14:16:43;45.87;;;42.13;;
85154;SDS011;75523;53.218;6.564;2024-01-10T14:19:09;47.50;;;43.60;;
85154;SDS011;75523;53.218;6.564;2024-01-10T14:21:35;46.80;;;42.80;;
85154;SDS011;75523;53.218;6.564;2024-01-10T14:24:01;47.00;;;43.00;;
85154;SDS011;75523;53.218;6.564;2024-01-10T14:26:26;47.97;;;43.87;;
85154;SDS011;75523;53.218;6.564;2024-01-10T14:28:53;47.53;;;43.70;;
85154;SDS011;75523;53.218;6.564;2024-01-10T14:31:21;47.17;;;43.30;;
85154;SDS011;75523;53.218;6.564;2024-01-10T14:33:46;47.87;;;43.87;;
85154;SDS011;75523;53.218;6.564;2024-01-10T14:36:12;46.37;;;42.47;;
85154;SDS011;75523;53.218;6.564;2024-01-10T14:38:39;46.93;;;42.97;;
85154;SDS011;75523;53.218;6.564;2024-01-10T14:41:06;46.03;;;42.23;;
85154;SDS011;75523;53.218;6.564;2024-01-10T14:43:32;45.97;;;42.37;;
85154;SDS011;75523;53.218;6.564;2024-01-10T14:45:58;46.60;;;42.80;;